Time;durP1;ratioP1;P1;durP2;ratioP2;P2;SDS_P1;SDS_P2;PMS_P1;PMS_P2;Temp;Humidity;BMP_temperature;BMP_pressure;BME280_temperature;BME280_humidity;BME280_pressure;Samples;Min_cycle;Max_cycle;Signal;HPM_P1;HPM_P2
2023/08/10 00:01:12;;;;;;;9.00;3.40;;;;;;;16.85;70.86;100995.00;4096994;29;20045;-64
2023/08/10 00:03:15;;;;;;;7.35;4.43;;;;;;;16.85;71.23;100997.63;4112954;28;20042;-64
2023/08/10 00:05:19;;;;;;;14.43;4.18;;;;;;;16.82;71.31;100995.03;4079194;29;20048;-64
2023/08/10 00:07:22;;;;;;;8.47;3.57;;;;;;;16.82;71.40;100988.03;4110756;28;20081;-64
2023/08/10 00:09:24;;;;;;;10.48;3.72;;;;;;;16.82;71.45;100990.66;4080576;29;20126;-64
2023/08/10 00:11:28;;;;;;;10.90;3.22;;;;;;;16.83;71.47;100988.91;4109053;28;20067;-64
2023/08/10 00:13:30;;;;;;;10.10;3.90;;;;;;;16.85;71.07;100998.53;4091365;29;20039;-64
2023/08/10 00:15:35;;;;;;;12.55;3.75;;;;;;;16.81;71.02;100990.69;4097126;28;20520;-64
2023/08/10 00:17:37;;;;;;;;;;;;;;;16.65;71.47;100990.72;4109958;28;20043;-64
2023/08/10 00:19:40;;;;;;;9.18;3.03;;;;;;;16.65;71.34;100988.09;4086899;29;19930;-64
2023/08/10 00:21:42;;;;;;;7.90;3.25;;;;;;;16.64;71.16;100991.56;4096318;29;20513;-64
2023/08/10 00:23:46;;;;;;;11.23;3.85;;;;;;;16.62;71.45;100998.59;4113979;28;20434;-64
2023/08/10 00:25:49;;;;;;;9.63;2.95;;;;;;;16.63;71.38;101000.34;4078622;29;20058;-64
2023/08/10 00:27:53;;;;;;;12.52;3.03;;;;;;;16.62;71.29;100995.97;4096273;29;20051;-64
2023/08/10 00:29:56;;;;;;;8.13;2.35;;;;;;;16.60;71.27;101000.31;4112486;28;20045;-64
2023/08/10 00:32:01;;;;;;;10.10;3.15;;;;;;;16.58;71.09;101002.09;4094285;29;20146;-64
2023/08/10 00:34:05;;;;;;;6.35;2.75;;;;;;;16.57;71.30;101002.97;4095167;28;20045;-64
2023/08/10 00:36:08;;;;;;;7.03;3.00;;;;;;;16.54;71.40;101000.34;4094018;29;20035;-64
2023/08/10 00:38:12;;;;;;;5.88;3.10;;;;;;;16.54;71.26;100996.00;4092701;29;20466;-64
2023/08/10 00:40:15;;;;;;;6.57;2.50;;;;;;;16.53;71.34;100996.84;4112524;28;20047;-64
2023/08/10 00:42:18;;;;;;;6.95;2.60;;;;;;;16.51;71.42;100995.09;4082445;29;20039;-64
2023/08/10 00:44:21;;;;;;;5.82;2.35;;;;;;;16.52;71.41;101002.13;4100684;28;20039;-63
2023/08/10 00:46:24;;;;;;;5.35;2.28;;;;;;;16.49;71.58;100999.50;4110914;28;20045;-64
2023/08/10 00:48:29;;;;;;;5.10;2.65;;;;;;;16.48;71.65;101000.38;4092789;29;20039;-64
2023/08/10 00:50:32;;;;;;;4.68;2.00;;;;;;;16.46;71.93;101002.13;4093257;29;20054;-64
2023/08/10 00:52:36;;;;;;;3.83;2.08;;;;;;;16.47;71.91;101004.75;4112220;28;20062;-64
2023/08/10 00:54:38;;;;;;;5.43;2.40;;;;;;;16.47;71.88;101014.34;4112688;28;20035;-64
2023/08/10 00:56:41;;;;;;;3.03;2.22;;;;;;;16.45;71.94;101009.09;4093644;29;20549;-64
2023/08/10 00:58:45;;;;;;;4.40;2.08;;;;;;;16.44;71.73;101009.09;4111663;28;20043;-64
2023/08/10 01:00:48;;;;;;;6.80;3.13;;;;;;;16.37;72.02;101003.88;4096745;29;20206;-64
2023/08/10 01:02:52;;;;;;;6.37;2.40;;;;;;;16.33;72.23;101002.13;4094123;28;20035;-64
2023/08/10 01:04:56;;;;;;;4.03;1.90;;;;;;;16.32;72.20;101003.00;4096430;29;20109;-64
2023/08/10 01:07:06;;;;;;;5.28;2.22;;;;;;;16.28;72.39;101003.91;4109256;28;20052;-64
2023/08/10 01:09:15;;;;;;;2.88;2.00;;;;;;;16.28;72.31;101000.38;4091312;29;20086;-63
2023/08/10 01:11:24;;;;;;;4.00;2.17;;;;;;;16.28;72.63;101005.63;4107768;28;20494;-63
2023/08/10 01:13:35;;;;;;;4.93;2.30;;;;;;;16.27;72.56;101004.75;4090361;29;20031;-64
2023/08/10 01:15:46;;;;;;;7.55;1.75;;;;;;;16.27;72.79;101004.75;4110761;28;20043;-63
2023/08/10 01:17:52;;;;;;;3.38;1.80;;;;;;;16.25;72.84;101003.88;4112192;28;20030;-64
2023/08/10 01:20:00;;;;;;;5.75;1.90;;;;;;;16.25;72.82;101005.63;4093468;29;20486;-63
2023/08/10 01:22:09;;;;;;;3.13;1.90;;;;;;;16.24;72.59;101010.00;4093721;29;20074;-63
2023/08/10 01:24:29;;;;;;;4.25;2.78;;;;;;;16.23;72.80;101000.38;4111878;28;20038;-63
2023/08/10 01:26:33;;;;;;;3.63;1.80;;;;;;;16.21;72.88;101002.16;4102087;28;20051;-63
2023/08/10 01:28:36;;;;;;;4.93;2.08;;;;;;;16.20;72.62;101001.25;4111865;28;20043;-63
2023/08/10 01:30:40;;;;;;;3.55;2.13;;;;;;;16.19;72.59;100996.91;4094599;29;20031;-64
2023/08/10 01:32:43;;;;;;;2.58;1.80;;;;;;;16.16;72.98;101006.50;4109164;28;20039;-64
2023/08/10 01:34:46;;;;;;;5.78;2.40;;;;;;;16.16;73.09;101002.13;4111894;28;20097;-64
2023/08/10 01:36:48;;;;;;;6.35;2.22;;;;;;;16.15;73.38;101010.00;4109254;28;20547;-63
2023/08/10 01:38:51;;;;;;;2.17;1.77;;;;;;;16.15;73.09;101018.75;4110559;28;20129;-64
2023/08/10 01:40:54;;;;;;;5.07;2.20;;;;;;;16.16;73.39;101014.38;4112279;28;20038;-64
2023/08/10 01:42:58;;;;;;;4.05;2.30;;;;;;;16.18;73.25;101015.28;4111443;28;20039;-64
2023/08/10 01:45:03;;;;;;;;;;;;;;;16.05;73.64;101015.25;4111916;28;20077;-64
2023/08/10 01:47:10;;;;;;;4.88;2.38;;;;;;;16.04;73.56;101018.72;4107679;28;19944;-64
2023/08/10 01:49:14;;;;;;;3.58;2.20;;;;;;;16.05;73.34;101023.13;4088836;29;20050;-64
2023/08/10 01:51:22;;;;;;;4.22;2.40;;;;;;;16.09;73.01;101028.34;4093748;29;20050;-64
2023/08/10 01:53:29;;;;;;;4.28;2.25;;;;;;;16.10;73.38;101030.97;4106911;28;20054;-64
2023/08/10 01:55:32;;;;;;;5.97;2.20;;;;;;;16.11;72.73;101030.13;4112579;28;20126;-64
2023/08/10 01:57:34;;;;;;;3.85;2.75;;;;;;;16.05;72.49;101024.88;4088628;29;20185;-64
2023/08/10 01:59:38;;;;;;;5.25;2.42;;;;;;;16.00;72.71;101030.13;4107625;28;20428;-64
2023/08/10 02:01:41;;;;;;;4.88;3.05;;;;;;;15.96;73.28;101030.97;4111323;28;20039;-64
2023/08/10 02:03:44;;;;;;;3.17;2.22;;;;;;;15.92;73.56;101021.34;4096356;28;20043;-64
2023/08/10 02:05:47;;;;;;;4.75;2.42;;;;;;;15.92;73.22;101021.34;4093567;29;20050;-64
2023/08/10 02:07:50;;;;;;;6.60;2.20;;;;;;;15.93;73.39;101019.59;4110980;28;20058;-64
2023/08/10 02:09:53;;;;;;;4.78;2.20;;;;;;;15.92;73.44;101016.13;4094755;29;20470;-64
2023/08/10 02:11:56;;;;;;;4.88;2.00;;;;;;;15.91;73.63;101014.34;4109326;28;20066;-64
2023/08/10 02:14:00;;;;;;;3.55;2.10;;;;;;;15.91;73.44;101013.50;4108446;28;20484;-64
2023/08/10 02:16:05;;;;;;;3.08;2.28;;;;;;;15.88;74.00;101017.84;4095067;29;20035;-64
2023/08/10 02:18:07;;;;;;;;;;;;;;;15.78;74.29;101016.06;4095499;29;20433;-64
2023/08/10 02:20:12;;;;;;;3.63;2.50;;;;;;;15.83;74.43;101016.97;4107570;28;19921;-64
2023/08/10 02:22:16;;;;;;;6.05;2.65;;;;;;;15.87;74.08;101013.50;4095410;28;20781;-64
2023/08/10 02:24:19;;;;;;;4.65;2.47;;;;;;;15.90;74.62;101023.09;4108103;23;20425;-59
2023/08/10 02:26:21;;;;;;;4.13;2.90;;;;;;;15.89;74.32;101018.75;4107570;28;20103;-59
2023/08/10 02:28:24;;;;;;;6.03;2.97;;;;;;;15.90;74.17;101024.84;4079453;29;20063;-61
2023/08/10 02:30:27;;;;;;;4.68;2.38;;;;;;;15.92;74.21;101016.13;4093612;28;20474;-61
2023/08/10 02:32:31;;;;;;;5.47;2.60;;;;;;;15.94;73.86;101016.97;4102591;28;20113;-59
2023/08/10 02:34:34;;;;;;;6.82;2.70;;;;;;;15.96;74.04;101017.88;4102267;28;20039;-59
2023/08/10 02:36:37;;;;;;;4.15;3.00;;;;;;;15.97;74.01;101016.97;4111636;28;20042;-59
2023/08/10 02:38:40;;;;;;;4.95;2.75;;;;;;;15.96;73.87;101019.59;4127897;28;20038;-59
2023/08/10 02:40:43;;;;;;;5.32;2.65;;;;;;;15.95;73.45;101023.13;4103206;28;20511;-59
2023/08/10 02:42:46;;;;;;;4.80;2.78;;;;;;;15.91;73.41;101024.84;4115072;28;20500;-59
2023/08/10 02:44:50;;;;;;;5.03;3.38;;;;;;;15.85;73.63;101027.47;4112083;28;20553;-59
2023/08/10 02:46:52;;;;;;;4.00;2.65;;;;;;;15.83;73.87;101023.97;4115147;28;20049;-59
2023/08/10 02:48:57;;;;;;;5.63;2.60;;;;;;;15.80;74.18;101021.31;4130749;28;20132;-59
2023/08/10 02:51:00;;;;;;;7.00;3.03;;;;;;;15.79;74.02;101015.22;4106367;28;20039;-61
2023/08/10 02:53:03;;;;;;;4.47;2.55;;;;;;;15.83;74.09;101006.50;4114761;28;20039;-61
2023/08/10 02:55:07;;;;;;;6.43;2.92;;;;;;;15.86;74.02;101003.88;4111497;28;20038;-61
2023/08/10 02:57:10;;;;;;;3.72;2.67;;;;;;;15.89;74.26;101005.63;4113768;28;20129;-59
2023/08/10 02:59:12;;;;;;;4.10;2.75;;;;;;;15.90;74.50;101009.13;4114645;28;20493;-59
2023/08/10 03:01:14;;;;;;;5.00;2.88;;;;;;;15.91;73.96;101016.13;4112622;28;20086;-59
2023/08/10 03:03:18;;;;;;;5.45;3.10;;;;;;;15.89;74.32;101010.88;4111639;28;20468;-59
2023/08/10 03:05:22;;;;;;;4.35;3.00;;;;;;;15.94;74.04;101019.59;4115241;28;20047;-59
2023/08/10 03:07:26;;;;;;;6.65;2.92;;;;;;;15.92;74.23;101013.50;4097873;28;20102;-59
2023/08/10 03:09:29;;;;;;;3.30;2.58;;;;;;;15.92;73.92;101025.75;4106518;28;20432;-59
2023/08/10 03:11:31;;;;;;;4.88;2.63;;;;;;;15.91;73.87;101026.59;4129855;28;20571;-59
2023/08/10 03:13:34;;;;;;;5.75;2.75;;;;;;;15.91;74.12;101024.84;4111708;28;20077;-59
2023/08/10 03:15:38;;;;;;;5.60;3.10;;;;;;;15.90;73.80;101023.09;4098982;28;20046;-59
2023/08/10 03:17:40;;;;;;;3.97;2.50;;;;;;;15.90;73.84;101023.09;4111495;28;20090;-59
2023/08/10 03:19:44;;;;;;;7.35;3.20;;;;;;;15.86;74.38;101026.59;4114451;28;20045;-59
2023/08/10 03:21:49;;;;;;;5.97;2.42;;;;;;;15.86;74.00;101029.22;4130023;28;20038;-59
2023/08/10 03:23:52;;;;;;;6.50;2.95;;;;;;;15.83;74.40;101026.59;4111583;28;20469;-59
2023/08/10 03:25:55;;;;;;;4.80;3.03;;;;;;;15.85;73.94;101030.94;4114665;28;20046;-59
2023/08/10 03:27:58;;;;;;;10.00;3.22;;;;;;;15.84;74.03;101026.59;4113493;28;20066;-59
2023/08/10 03:30:00;;;;;;;3.88;2.38;;;;;;;15.83;74.02;101037.94;4113530;28;20078;-59
2023/08/10 03:32:06;;;;;;;6.00;2.88;;;;;;;15.77;73.83;101037.03;4113356;28;20057;-59
2023/08/10 03:34:09;;;;;;;4.50;2.75;;;;;;;15.73;73.97;101040.53;4110776;28;20045;-59
2023/08/10 03:36:14;;;;;;;6.00;2.90;;;;;;;15.73;74.29;101035.28;4113627;28;20038;-59
2023/08/10 03:38:19;;;;;;;4.68;3.00;;;;;;;15.71;74.24;101036.16;4129940;28;20040;-59
2023/08/10 03:40:22;;;;;;;4.68;2.70;;;;;;;15.67;73.76;101030.91;4129408;28;20034;-59
2023/08/10 03:42:23;;;;;;;6.18;3.17;;;;;;;15.70;73.62;101041.41;4113766;28;20051;-59
2023/08/10 03:44:27;;;;;;;5.53;2.50;;;;;;;15.71;73.90;101044.00;4130109;28;20052;-59
2023/08/10 03:46:30;;;;;;;6.07;2.83;;;;;;;15.71;74.13;101043.13;4105661;28;20041;-60
2023/08/10 03:48:33;;;;;;;4.72;2.58;;;;;;;15.73;73.97;101040.53;4111567;28;20042;-59
2023/08/10 03:50:37;;;;;;;4.80;2.90;;;;;;;15.66;73.97;101043.13;4107170;28;20031;-60
2023/08/10 03:52:39;;;;;;;6.20;2.58;;;;;;;15.61;73.74;101039.63;4107789;28;20038;-60
2023/08/10 03:54:43;;;;;;;4.00;2.63;;;;;;;15.62;74.12;101041.34;4096503;29;20106;-60
2023/08/10 03:56:46;;;;;;;4.65;2.45;;;;;;;15.58;74.18;101031.75;4110836;28;20038;-60
2023/08/10 03:58:48;;;;;;;7.13;3.47;;;;;;;15.60;73.66;101035.25;4115195;28;20069;-61
2023/08/10 04:00:50;;;;;;;5.85;2.13;;;;;;;15.79;75.29;101030.94;4095526;28;20133;-69
2023/08/10 04:02:54;;;;;;;6.10;3.13;;;;;;;16.16;75.20;101035.34;4111088;28;20126;-68
2023/08/10 04:04:58;;;;;;;8.68;2.55;;;;;;;16.43;74.15;101037.13;4119432;28;20598;-69
2023/08/10 04:07:01;;;;;;;6.57;2.40;;;;;;;16.65;73.79;101032.72;4110562;28;20197;-69
2023/08/10 04:09:04;;;;;;;5.25;2.53;;;;;;;16.85;72.83;101032.69;4111341;28;20576;-69
2023/08/10 04:11:09;;;;;;;8.48;2.45;;;;;;;16.97;72.08;101031.78;4104962;28;20477;-69
2023/08/10 04:13:13;;;;;;;5.03;2.60;;;;;;;17.03;71.77;101031.78;4107366;28;20138;-68
2023/08/10 04:15:15;;;;;;;4.32;2.55;;;;;;;17.05;71.30;101035.25;4111233;28;20038;-69
2023/08/10 04:17:19;;;;;;;6.63;2.90;;;;;;;17.08;70.96;101030.00;4105499;28;21288;-69
2023/08/10 04:19:21;;;;;;;6.80;2.55;;;;;;;17.17;70.83;101038.72;4104862;28;20108;-69
2023/08/10 04:21:24;;;;;;;7.53;2.85;;;;;;;17.20;70.47;101034.34;4111079;28;20041;-68
2023/08/10 04:23:28;;;;;;;7.57;2.58;;;;;;;17.20;70.63;101041.34;4111432;28;20038;-68
2023/08/10 04:25:31;;;;;;;4.72;2.03;;;;;;;17.23;70.47;101043.94;4119873;28;20079;-68
2023/08/10 04:27:37;;;;;;;8.45;2.60;;;;;;;17.22;70.26;101044.84;4113766;28;20042;-68
2023/08/10 04:29:43;;;;;;;6.18;2.20;;;;;;;17.25;70.28;101057.97;4110249;28;20662;-68
2023/08/10 04:31:46;;;;;;;4.80;2.72;;;;;;;17.19;69.92;101064.13;4123844;28;20488;-68
2023/08/10 04:33:49;;;;;;;5.68;2.50;;;;;;;17.18;70.30;101064.13;4115096;28;20129;-68
2023/08/10 04:35:52;;;;;;;15.48;2.88;;;;;;;17.20;70.08;101064.97;4112052;28;20496;-68
2023/08/10 04:37:55;;;;;;;6.10;3.03;;;;;;;17.28;69.90;101073.72;4106633;28;20069;-68
2023/08/10 04:39:58;;;;;;;3.30;2.38;;;;;;;17.35;69.68;101067.56;4110080;28;20793;-68
2023/08/10 04:42:01;;;;;;;6.10;2.40;;;;;;;17.39;69.50;101058.78;4107504;28;20042;-68
2023/08/10 04:44:06;;;;;;;6.00;2.50;;;;;;;17.43;69.54;101057.91;4108302;28;20133;-68
2023/08/10 04:46:10;;;;;;;4.38;2.50;;;;;;;17.47;68.93;101057.88;4111208;28;20042;-66
2023/08/10 04:48:13;;;;;;;3.95;2.28;;;;;;;17.48;69.40;101059.63;4105393;28;20045;-67
2023/08/10 04:50:16;;;;;;;6.03;2.42;;;;;;;17.46;69.35;101051.75;4111639;28;20035;-67
2023/08/10 04:52:19;;;;;;;4.75;2.83;;;;;;;17.48;69.16;101064.88;4113823;28;20038;-67
2023/08/10 04:54:21;;;;;;;2.33;2.10;;;;;;;17.47;69.42;101060.53;4106621;28;20035;-67
2023/08/10 04:56:24;;;;;;;8.65;2.95;;;;;;;17.49;69.32;101061.38;4114255;28;20042;-67
2023/08/10 04:58:27;;;;;;;6.78;2.58;;;;;;;17.50;69.44;101061.38;4107787;28;20071;-66
2023/08/10 05:00:31;;;;;;;5.53;2.60;;;;;;;17.52;69.31;101057.00;4110776;28;20041;-67
2023/08/10 05:02:34;;;;;;;6.65;2.55;;;;;;;17.53;69.38;101063.97;4113271;28;20130;-67
2023/08/10 05:04:37;;;;;;;9.30;2.90;;;;;;;17.56;69.33;101063.09;4113845;28;20049;-67
2023/08/10 05:06:40;;;;;;;6.35;2.58;;;;;;;17.59;69.12;101069.19;4113411;28;20039;-67
2023/08/10 05:08:43;;;;;;;5.57;3.17;;;;;;;17.59;68.97;101065.69;4116348;28;20125;-67
2023/08/10 05:10:46;;;;;;;7.82;3.42;;;;;;;17.57;69.22;101063.09;4114283;28;20130;-67
2023/08/10 05:12:49;;;;;;;4.30;2.08;;;;;;;17.56;69.40;101074.47;4106963;28;20060;-67
2023/08/10 05:14:52;;;;;;;5.05;2.50;;;;;;;17.60;69.27;101067.47;4120745;28;20046;-67
2023/08/10 05:16:56;;;;;;;5.47;2.53;;;;;;;17.62;69.25;101069.22;4114639;28;20133;-67
2023/08/10 05:18:59;;;;;;;5.57;2.70;;;;;;;17.63;69.12;101065.66;4114790;28;20464;-67
2023/08/10 05:21:03;;;;;;;5.13;2.72;;;;;;;17.67;69.19;101070.91;4112164;28;20134;-67
2023/08/10 05:23:05;;;;;;;2.85;2.10;;;;;;;17.67;69.17;101076.16;4094325;29;20051;-68
2023/08/10 05:25:09;;;;;;;4.30;2.25;;;;;;;17.69;69.42;101077.06;4111928;28;20053;-67
2023/08/10 05:27:12;;;;;;;3.78;2.38;;;;;;;17.72;69.17;101080.53;4109160;28;20069;-67
2023/08/10 05:29:15;;;;;;;5.30;2.50;;;;;;;17.74;69.20;101083.16;4108451;28;20129;-68
2023/08/10 05:31:18;;;;;;;5.40;2.20;;;;;;;17.74;69.20;101089.31;4110505;28;20043;-67
2023/08/10 05:33:22;;;;;;;3.08;2.17;;;;;;;17.67;69.71;101089.31;4101873;28;20036;-60
2023/08/10 05:35:25;;;;;;;3.30;2.45;;;;;;;17.48;69.70;101091.16;4106087;28;20098;-60
2023/08/10 05:37:27;;;;;;;6.75;2.60;;;;;;;17.30;70.81;101092.97;4115174;28;20073;-61
2023/08/10 05:39:30;;;;;;;3.08;2.38;;;;;;;17.22;71.72;101100.03;4115281;28;20129;-61
2023/08/10 05:41:33;;;;;;;5.07;2.50;;;;;;;17.13;72.12;101111.44;4113890;28;20027;-61
2023/08/10 05:43:36;;;;;;;3.80;2.63;;;;;;;17.05;72.34;101114.06;4107732;28;20066;-61
2023/08/10 05:45:39;;;;;;;5.70;2.58;;;;;;;17.00;73.09;101109.72;4107578;28;20039;-61
2023/08/10 05:47:42;;;;;;;3.90;2.60;;;;;;;16.94;73.02;101105.34;4107671;28;20039;-61
2023/08/10 05:49:46;;;;;;;5.45;2.42;;;;;;;16.94;72.96;101110.59;4110661;28;20047;-61
2023/08/10 05:51:49;;;;;;;3.85;2.20;;;;;;;16.96;72.74;101114.09;4110495;28;20063;-61
2023/08/10 05:53:52;;;;;;;3.55;2.67;;;;;;;16.96;72.67;101107.97;4111474;28;20043;-61
2023/08/10 05:56:21;;;;;;;5.13;3.03;;;;;;;16.91;73.34;101115.88;4114868;28;20039;-61
2023/08/10 05:58:24;;;;;;;3.78;2.63;;;;;;;16.85;73.51;101118.44;4115067;28;20057;-61
2023/08/10 06:00:27;;;;;;;5.00;3.15;;;;;;;16.95;72.93;101121.97;4112248;28;20050;-61
2023/08/10 06:02:30;;;;;;;6.20;2.80;;;;;;;16.98;72.35;101122.88;4112567;28;20412;-61
2023/08/10 06:04:34;;;;;;;4.88;3.13;;;;;;;17.04;71.96;101124.56;4108744;28;20035;-61
2023/08/10 06:06:38;;;;;;;4.47;2.70;;;;;;;17.07;72.02;101124.59;4114016;28;20053;-61
2023/08/10 06:08:41;;;;;;;4.82;2.80;;;;;;;17.08;72.18;101128.94;4103525;28;20046;-61
2023/08/10 06:10:43;;;;;;;5.68;3.05;;;;;;;17.10;72.73;101120.19;4102145;28;20058;-61
2023/08/10 06:12:47;;;;;;;5.55;2.70;;;;;;;17.08;72.93;101123.69;4112149;28;20122;-61
2023/08/10 06:14:50;;;;;;;6.80;2.50;;;;;;;17.13;72.72;101123.69;4113363;28;20049;-61
2023/08/10 06:16:53;;;;;;;3.78;2.60;;;;;;;17.17;72.74;101117.53;4111545;28;20437;-61
2023/08/10 06:18:55;;;;;;;4.28;2.80;;;;;;;17.18;72.45;101129.81;4100997;28;20413;-61
2023/08/10 06:20:58;;;;;;;5.90;3.15;;;;;;;17.21;72.20;101124.53;4097214;29;20051;-61
2023/08/10 06:23:03;;;;;;;11.10;4.30;;;;;;;17.25;72.21;101121.03;4112188;28;20777;-61
2023/08/10 06:25:08;;;;;;;8.15;4.18;;;;;;;17.25;71.70;101126.28;4108785;28;20053;-61
2023/08/10 06:27:11;;;;;;;10.40;5.22;;;;;;;17.27;71.50;101119.28;4115083;28;20050;-61
2023/08/10 06:29:14;;;;;;;8.90;4.20;;;;;;;17.32;71.47;101128.03;4114408;28;20477;-61
2023/08/10 06:31:17;;;;;;;8.07;4.80;;;;;;;17.31;71.10;101125.41;4115482;28;20089;-61
2023/08/10 06:33:20;;;;;;;8.98;4.40;;;;;;;17.30;71.17;101129.78;4115805;28;20039;-61
2023/08/10 06:35:24;;;;;;;9.95;4.45;;;;;;;17.30;70.96;101129.78;4117737;28;20039;-61
2023/08/10 06:37:26;;;;;;;6.78;3.92;;;;;;;17.28;71.00;101132.41;4110590;28;20125;-61
2023/08/10 06:39:30;;;;;;;7.15;4.40;;;;;;;17.32;71.47;101135.91;4114275;28;20137;-61
2023/08/10 06:41:33;;;;;;;8.88;4.75;;;;;;;17.36;70.94;101131.50;4112914;28;20131;-61
2023/08/10 06:43:36;;;;;;;9.43;4.13;;;;;;;17.42;70.64;101137.63;4108365;28;20179;-61
2023/08/10 06:45:39;;;;;;;8.48;4.30;;;;;;;17.46;70.39;101133.22;4130132;28;20422;-61
2023/08/10 06:47:43;;;;;;;7.63;4.22;;;;;;;17.52;69.94;101134.97;4114841;28;20066;-61
2023/08/10 06:49:46;;;;;;;8.30;5.18;;;;;;;17.54;69.94;101136.72;4114548;28;20043;-61
2023/08/10 06:51:50;;;;;;;6.72;4.95;;;;;;;17.57;70.16;101135.84;4114624;28;20073;-61
2023/08/10 06:53:52;;;;;;;;;;;;;;;17.53;70.00;101136.72;4116415;28;20031;-61
2023/08/10 06:55:56;;;;;;;11.10;5.35;;;;;;;17.65;69.86;101131.41;4130051;28;20040;-61
2023/08/10 06:58:02;;;;;;;9.30;4.70;;;;;;;17.73;69.64;101134.88;4113718;28;20150;-61
2023/08/10 07:00:06;;;;;;;6.95;4.55;;;;;;;17.82;69.36;101133.97;4115155;28;20046;-61
2023/08/10 07:02:12;;;;;;;8.85;4.78;;;;;;;17.88;69.23;101140.94;4114027;28;20069;-61
2023/08/10 07:04:15;;;;;;;8.98;5.55;;;;;;;17.87;68.82;101142.72;4113496;28;20035;-61
2023/08/10 07:06:18;;;;;;;8.15;4.85;;;;;;;17.89;68.48;101137.44;4113474;28;20113;-61
2023/08/10 07:08:21;;;;;;;10.43;5.22;;;;;;;17.91;68.55;101141.81;4114906;28;20125;-61
2023/08/10 07:10:24;;;;;;;10.52;5.50;;;;;;;17.93;68.64;101141.81;4114881;28;20086;-61
2023/08/10 07:12:29;;;;;;;11.27;5.70;;;;;;;17.93;69.11;101139.19;4111983;28;20038;-61
2023/08/10 07:14:32;;;;;;;9.10;5.70;;;;;;;18.00;68.82;101137.41;4114150;28;20081;-61
2023/08/10 07:16:35;;;;;;;10.15;5.82;;;;;;;18.08;69.08;101130.34;4109971;28;20067;-61
2023/08/10 07:18:38;;;;;;;11.02;6.07;;;;;;;18.14;68.55;101130.31;4129935;28;20480;-61
2023/08/10 07:20:41;;;;;;;17.27;6.30;;;;;;;18.19;68.36;101127.66;4115895;28;20043;-61
2023/08/10 07:22:45;;;;;;;16.85;7.28;;;;;;;18.28;67.80;101127.56;4108501;28;20051;-61
2023/08/10 07:24:49;;;;;;;12.55;6.65;;;;;;;18.39;68.08;101132.78;4110553;28;20045;-61
2023/08/10 07:26:52;;;;;;;8.57;5.53;;;;;;;18.45;67.96;101130.09;4106097;28;20077;-62
2023/08/10 07:28:57;;;;;;;10.52;6.20;;;;;;;18.51;67.48;101127.41;4108100;28;20121;-61
2023/08/10 07:31:00;;;;;;;11.18;6.20;;;;;;;18.56;67.29;101127.38;4111506;28;20153;-61
2023/08/10 07:33:04;;;;;;;10.55;6.32;;;;;;;18.66;67.55;101135.19;4107851;28;20084;-61
2023/08/10 07:35:08;;;;;;;9.90;5.03;;;;;;;18.76;67.65;101127.19;4107759;28;20051;-61
2023/08/10 07:37:11;;;;;;;11.32;6.65;;;;;;;18.82;66.35;101128.03;4093835;28;20047;-61
2023/08/10 07:39:14;;;;;;;11.30;5.70;;;;;;;18.92;66.67;101130.59;4095872;29;20130;-61
2023/08/10 07:41:17;;;;;;;8.95;5.10;;;;;;;18.99;66.81;101132.28;4113494;28;22128;-61
2023/08/10 07:43:20;;;;;;;9.07;5.53;;;;;;;19.06;66.28;101138.38;4112925;28;20031;-61
2023/08/10 07:45:24;;;;;;;9.30;5.53;;;;;;;19.12;66.09;101149.72;4112954;28;20492;-61
2023/08/10 07:47:27;;;;;;;10.27;5.45;;;;;;;19.22;66.05;101152.28;4110856;28;20516;-61
2023/08/10 07:49:31;;;;;;;6.70;4.30;;;;;;;19.28;65.96;101145.16;4116780;28;20101;-61
2023/08/10 07:51:34;;;;;;;9.77;5.32;;;;;;;19.36;65.56;101148.59;4115243;28;20198;-61
2023/08/10 07:53:37;;;;;;;10.75;5.75;;;;;;;19.45;65.83;101150.25;4116349;28;20042;-61
2023/08/10 07:55:39;;;;;;;11.90;7.43;;;;;;;19.58;62.66;101139.56;4113028;28;20037;-61
2023/08/10 07:57:42;;;;;;;10.73;5.65;;;;;;;19.56;62.32;101136.06;4109882;28;20031;-61
2023/08/10 07:59:45;;;;;;;8.70;5.15;;;;;;;19.57;62.63;101140.47;4112905;28;20035;-61
2023/08/10 08:01:49;;;;;;;12.68;4.13;;;;;;;19.68;60.62;101128.00;4114547;28;20085;-61
2023/08/10 08:03:52;;;;;;;10.30;3.88;;;;;;;19.67;61.00;101137.69;4106187;28;20436;-61
2023/08/10 08:05:55;;;;;;;8.95;5.60;;;;;;;19.67;61.68;101131.53;4097107;29;20043;-61
2023/08/10 08:07:58;;;;;;;7.90;4.68;;;;;;;19.71;61.29;101131.47;4119870;28;20050;-61
2023/08/10 08:10:01;;;;;;;10.80;5.65;;;;;;;19.81;60.95;101131.38;4113021;28;20089;-61
2023/08/10 08:12:04;;;;;;;9.13;6.00;;;;;;;19.93;59.50;101132.97;4115376;28;20416;-61
2023/08/10 08:14:07;;;;;;;7.53;4.45;;;;;;;19.87;60.58;101128.66;4111275;28;20042;-61
2023/08/10 08:16:11;;;;;;;9.20;5.43;;;;;;;19.88;60.72;101128.63;4109383;28;20117;-61
2023/08/10 08:18:47;;;;;;;11.10;5.80;;;;;;;20.04;60.81;101126.66;4109447;28;20050;-61
2023/08/10 08:20:50;;;;;;;11.73;7.90;;;;;;;20.23;57.62;101121.09;4113697;28;20126;-61
2023/08/10 08:22:53;;;;;;;9.05;5.20;;;;;;;20.15;59.19;101123.88;4113516;28;20038;-61
2023/08/10 08:24:56;;;;;;;9.55;6.22;;;;;;;20.20;59.29;101115.88;4130923;23;20516;-63
2023/08/10 08:26:59;;;;;;;7.10;4.53;;;;;;;20.21;59.60;101115.84;4127846;28;20045;-63
2023/08/10 08:29:01;;;;;;;9.35;6.88;;;;;;;20.43;58.15;101110.22;4127038;28;20046;-63
2023/08/10 08:31:05;;;;;;;8.98;5.10;;;;;;;20.39;59.09;101114.69;4114383;28;20042;-64
2023/08/10 08:33:09;;;;;;;9.50;5.38;;;;;;;20.45;58.74;101104.94;4114085;28;20515;-64
2023/08/10 08:35:13;;;;;;;8.82;4.85;;;;;;;20.51;58.48;101123.31;4130033;28;20053;-64
2023/08/10 08:37:16;;;;;;;7.45;5.25;;;;;;;20.55;57.49;101120.59;4113906;28;20050;-64
2023/08/10 08:39:19;;;;;;;9.90;5.30;;;;;;;20.63;56.23;101109.03;4105434;28;20069;-63
2023/08/10 08:41:26;;;;;;;6.57;4.57;;;;;;;20.69;57.29;101116.88;4107962;28;20126;-63
2023/08/10 08:43:30;;;;;;;8.32;4.65;;;;;;;20.83;57.54;101114.00;4125809;28;20121;-64
2023/08/10 08:45:33;;;;;;;8.20;4.88;;;;;;;20.90;57.46;101119.13;4110132;28;20039;-63
2023/08/10 08:47:37;;;;;;;6.07;3.92;;;;;;;21.00;57.45;101111.06;4131453;28;20046;-64
2023/08/10 08:49:40;;;;;;;6.97;4.22;;;;;;;21.05;58.23;101115.31;4128136;28;20047;-64
2023/08/10 08:51:45;;;;;;;7.55;4.75;;;;;;;21.15;57.67;101113.38;4108424;28;20043;-63
2023/08/10 08:53:50;;;;;;;9.77;5.57;;;;;;;21.21;54.98;101100.03;4113315;28;20046;-63
2023/08/10 08:55:53;;;;;;;5.57;3.60;;;;;;;21.26;55.95;101094.66;4126715;28;20404;-63
2023/08/10 08:57:56;;;;;;;11.60;5.32;;;;;;;21.37;55.19;101099.75;4124929;28;20463;-63
2023/08/10 08:59:59;;;;;;;7.38;4.13;;;;;;;21.39;54.48;101100.56;4123513;28;20046;-64
2023/08/10 09:02:02;;;;;;;6.22;3.70;;;;;;;21.42;54.00;101089.94;4133334;28;20062;-63
2023/08/10 09:04:19;;;;;;;7.38;3.88;;;;;;;21.53;53.64;101095.91;4132445;28;20038;-64
2023/08/10 09:06:22;;;;;;;7.50;3.88;;;;;;;21.61;53.71;101090.44;4135432;28;20038;-63
2023/08/10 09:08:27;;;;;;;7.68;3.72;;;;;;;21.72;53.78;101095.50;4096716;29;20082;-64
2023/08/10 09:10:33;;;;;;;7.50;3.53;;;;;;;21.77;53.67;101096.28;4111998;28;20244;-64
2023/08/10 09:12:45;;;;;;;6.05;3.10;;;;;;;21.90;51.93;101097.75;4131527;28;20412;-63
2023/08/10 09:15:00;;;;;;;7.50;3.47;;;;;;;21.94;53.30;101099.41;4132472;28;20038;-63
2023/08/10 09:17:05;;;;;;;6.82;4.20;;;;;;;22.01;53.20;101094.84;4127780;28;20444;-63
2023/08/10 09:19:12;;;;;;;7.75;3.22;;;;;;;22.09;53.35;101098.22;4126212;28;20038;-63
2023/08/10 09:21:16;;;;;;;7.97;3.28;;;;;;;22.15;52.38;101086.56;4107516;28;20113;-63
2023/08/10 09:23:19;;;;;;;6.30;3.10;;;;;;;22.21;52.65;101085.56;4125687;28;20046;-61
2023/08/10 09:25:24;;;;;;;5.72;3.05;;;;;;;22.28;52.35;101077.44;4129457;28;20377;-63
2023/08/10 09:27:27;;;;;;;3.72;2.53;;;;;;;22.35;52.46;101082.63;4129095;28;20069;-63
2023/08/10 09:29:30;;;;;;;7.57;3.25;;;;;;;22.41;51.55;101074.50;4115052;28;20126;-64
2023/08/10 09:31:33;;;;;;;4.10;2.70;;;;;;;22.50;51.73;101074.25;4124207;28;20122;-63
2023/08/10 09:33:38;;;;;;;5.55;2.90;;;;;;;22.51;51.67;101076.00;4104450;28;20141;-64
2023/08/10 09:35:40;;;;;;;5.70;2.42;;;;;;;22.60;51.25;101069.59;4125997;28;20042;-63